createdAt,value
2019-03-23T00:02:04.110Z,97957.89
2019-03-23T00:05:01.346Z,97966.13
2019-03-23T00:07:59.508Z,97961.10
2019-03-23T00:10:56.166Z,97959.14
2019-03-23T00:13:52.341Z,97949.48
2019-03-23T00:16:49.362Z,97957.09
2019-03-23T00:19:46.620Z,97956.32
2019-03-23T00:22:43.846Z,97950.67
2019-03-23T00:25:40.180Z,97950.18
2019-03-23T00:28:39.511Z,97944.70
2019-03-23T00:31:35.138Z,97943.45
2019-03-23T00:34:33.178Z,97944.63
2019-03-23T00:37:30.262Z,97942.50
2019-03-23T00:40:27.408Z,97936.53
2019-03-23T00:43:24.551Z,97936.02
2019-03-23T00:46:20.859Z,97932.95
2019-03-23T00:49:18.579Z,97937.97
2019-03-23T00:52:14.885Z,97934.52
2019-03-23T00:55:13.072Z,97936.02
2019-03-23T00:58:10.222Z,97936.75
2019-03-23T01:01:07.692Z,97939.09
2019-03-23T01:04:05.864Z,97933.44
2019-03-23T01:07:02.984Z,97936.12
2019-03-23T01:10:00.329Z,97929.94
2019-03-23T01:12:56.256Z,97929.47
2019-03-23T01:15:53.564Z,97926.88
2019-03-23T01:18:49.283Z,97931.78
2019-03-23T01:21:47.580Z,97929.70
2019-03-23T01:24:44.412Z,97933.33
2019-03-23T01:27:40.190Z,97931.44
2019-03-23T01:30:37.342Z,97934.41
2019-03-23T01:33:33.299Z,97923.77
2019-03-23T01:36:31.660Z,97919.83
2019-03-23T01:39:28.648Z,97915.91
2019-03-23T01:42:25.994Z,97921.09
2019-03-23T01:45:20.890Z,97914.64
2019-03-23T01:48:20.436Z,97922.95
2019-03-23T01:51:18.746Z,97920.37
2019-03-23T01:54:16.863Z,97915.28
2019-03-23T01:57:14.126Z,97912.28
2019-03-23T02:00:11.184Z,97910.27
2019-03-23T02:03:08.538Z,97913.72
2019-03-23T02:06:05.699Z,97910.41
2019-03-23T02:09:04.778Z,97904.53
2019-03-23T02:12:01.908Z,97909.62
2019-03-23T02:14:57.953Z,97906.27
2019-03-23T02:17:55.268Z,97912.13
2019-03-23T02:20:51.916Z,97909.47
2019-03-23T02:23:49.031Z,97910.27
2019-03-23T02:26:45.156Z,97906.02
2019-03-23T02:29:43.470Z,97904.37
2019-03-23T02:32:39.702Z,97900.84
2019-03-23T02:35:36.677Z,97908.22
2019-03-23T02:38:32.889Z,97897.52
2019-03-23T02:41:29.961Z,97897.52
2019-03-23T02:44:27.427Z,97903.94
2019-03-23T02:47:23.735Z,97904.55
2019-03-23T02:50:19.931Z,97903.45
2019-03-23T02:53:17.170Z,97910.73
2019-03-23T02:56:15.228Z,97903.06
2019-03-23T02:59:12.397Z,97906.26
2019-03-23T03:02:09.750Z,97907.96
2019-03-23T03:05:05.954Z,97900.59
2019-03-23T03:08:03.197Z,97902.75
2019-03-23T03:11:03.551Z,97899.14
2019-03-23T03:13:59.665Z,97903.04
2019-03-23T03:16:56.775Z,97898.14
2019-03-23T03:19:52.120Z,97898.47
2019-03-23T03:22:50.363Z,97901.36
2019-03-23T03:25:46.525Z,97903.30
2019-03-23T03:28:45.037Z,97898.92
2019-03-23T03:31:42.264Z,97894.75
2019-03-23T03:34:39.797Z,97894.83
2019-03-23T03:37:36.119Z,97894.20
2019-03-23T03:40:34.410Z,97891.52
2019-03-23T03:43:31.546Z,97893.86
2019-03-23T03:46:27.751Z,97889.94
2019-03-23T03:49:25.072Z,97889.94
2019-03-23T03:52:21.399Z,97889.37
2019-03-23T03:55:19.631Z,97892.25
2019-03-23T03:58:15.739Z,97893.04
2019-03-23T04:01:12.878Z,97898.84
2019-03-23T04:04:10.232Z,97905.41
2019-03-23T04:07:06.612Z,97900.39
2019-03-23T04:10:03.451Z,97903.66
2019-03-23T04:12:59.283Z,97908.00
2019-03-23T04:15:56.244Z,97905.83
2019-03-23T04:18:53.152Z,97913.15
2019-03-23T04:21:52.685Z,97922.05
2019-03-23T04:24:49.908Z,97912.63
2019-03-23T04:27:46.031Z,97922.47
2019-03-23T04:30:48.115Z,97924.31
2019-03-23T04:33:44.328Z,97925.98
2019-03-23T04:36:42.832Z,97925.29
2019-03-23T04:39:39.128Z,97925.29
2019-03-23T04:42:37.225Z,97930.67
2019-03-23T04:45:33.282Z,97929.17
2019-03-23T04:48:30.431Z,97935.80
2019-03-23T04:51:27.440Z,97936.75
2019-03-23T04:54:23.513Z,97935.80
2019-03-23T04:57:20.655Z,97933.05
2019-03-23T05:00:16.900Z,97937.09
2019-03-23T05:03:14.050Z,97933.63
2019-03-23T05:06:10.479Z,97940.34
2019-03-23T05:09:07.597Z,97933.63
2019-03-23T05:12:06.013Z,97939.09
2019-03-23T05:15:03.015Z,97943.05
2019-03-23T05:17:59.269Z,97945.72
2019-03-23T05:20:56.400Z,97945.89
2019-03-23T05:23:54.602Z,97945.13
2019-03-23T05:26:50.941Z,97948.59
2019-03-23T05:29:48.046Z,97947.80
2019-03-23T05:32:47.170Z,97947.22
2019-03-23T05:35:43.035Z,97949.09
2019-03-23T05:38:44.601Z,97945.05
2019-03-23T05:41:37.187Z,97952.47
2019-03-23T05:44:34.579Z,97952.14
2019-03-23T05:47:29.897Z,97948.50
2019-03-23T05:50:26.986Z,97948.38
2019-03-23T05:53:25.643Z,97945.42
2019-03-23T05:56:22.811Z,97953.52
2019-03-23T05:59:19.151Z,97953.34
2019-03-23T06:02:18.518Z,97956.98
2019-03-23T06:05:15.704Z,97960.02
2019-03-23T06:08:11.446Z,97960.02
2019-03-23T06:11:08.603Z,97966.14
2019-03-23T06:14:05.948Z,97963.36
2019-03-23T06:17:04.388Z,97964.11
2019-03-23T06:20:00.349Z,97963.52
2019-03-23T06:22:59.525Z,97966.28
2019-03-23T06:25:55.673Z,97968.73
2019-03-23T06:28:52.881Z,97964.23
2019-03-23T06:31:49.871Z,97963.17
2019-03-23T06:34:45.960Z,97964.77
2019-03-23T06:37:43.148Z,97966.00
2019-03-23T06:40:39.487Z,97965.95
2019-03-23T06:43:37.837Z,97964.27
2019-03-23T06:46:34.993Z,97963.67
2019-03-23T06:49:30.371Z,97969.96
2019-03-23T06:52:27.372Z,97968.61
2019-03-23T06:55:23.421Z,97964.22
2019-03-23T06:58:20.562Z,97966.70
2019-03-23T07:01:16.778Z,97970.56
2019-03-23T07:04:14.668Z,97977.38
2019-03-23T07:07:11.856Z,97969.12
2019-03-23T07:10:08.058Z,97966.66
2019-03-23T07:13:06.538Z,97972.02
2019-03-23T07:16:03.634Z,97968.13
2019-03-23T07:19:01.641Z,97964.69
2019-03-23T07:21:58.880Z,97969.57
2019-03-23T07:24:57.030Z,97963.91
2019-03-23T07:27:54.286Z,97964.39
2019-03-23T07:30:50.560Z,97969.71
2019-03-23T07:33:48.939Z,97969.05
2019-03-23T07:36:44.800Z,97959.92
2019-03-23T07:39:41.563Z,97962.70
2019-03-23T07:42:37.633Z,97963.39
2019-03-23T07:45:35.292Z,97965.77
2019-03-23T07:48:32.448Z,97957.05
2019-03-23T07:51:28.958Z,97962.95
2019-03-23T07:54:28.386Z,97964.28
2019-03-23T07:57:24.824Z,97966.50
2019-03-23T08:00:21.840Z,97966.83
2019-03-23T08:03:18.895Z,97964.70
2019-03-23T08:06:15.166Z,97958.25
2019-03-23T08:09:20.071Z,97951.63
2019-03-23T08:12:08.209Z,97955.11
2019-03-23T08:15:05.831Z,97954.78
2019-03-23T08:18:03.133Z,97953.77
2019-03-23T08:21:00.303Z,97964.00
2019-03-23T08:24:00.603Z,97964.02
2019-03-23T08:26:56.841Z,97965.30
2019-03-23T08:29:55.110Z,97960.72
2019-03-23T08:32:51.491Z,97962.67
2019-03-23T08:35:49.931Z,97963.55
2019-03-23T08:38:46.028Z,97955.50
2019-03-23T08:41:42.943Z,97954.34
2019-03-23T08:44:39.875Z,97950.14
2019-03-23T08:47:36.654Z,97951.12
2019-03-23T08:50:32.995Z,97947.28
2019-03-23T08:53:31.354Z,97948.27
2019-03-23T08:56:28.599Z,97948.27
2019-03-23T08:59:24.221Z,97940.64
2019-03-23T09:02:21.917Z,97939.07
2019-03-23T09:05:18.593Z,97939.30
2019-03-23T09:08:15.709Z,97933.33
2019-03-23T09:11:20.259Z,97936.96
2019-03-23T09:14:08.841Z,97940.56
2019-03-23T09:17:04.753Z,97936.66
2019-03-23T09:20:02.076Z,97935.44
2019-03-23T09:23:00.447Z,97933.66
2019-03-23T09:25:57.606Z,97927.65
2019-03-23T09:28:54.790Z,97923.16
2019-03-23T09:31:51.095Z,97930.41
2019-03-23T09:34:49.315Z,97924.73
2019-03-23T09:37:45.676Z,97915.77
2019-03-23T09:40:43.322Z,97916.89
2019-03-23T09:43:39.122Z,97918.84
2019-03-23T09:46:37.038Z,97925.90
2019-03-23T09:49:34.247Z,97914.45
2019-03-23T09:52:29.966Z,97913.03
2019-03-23T09:55:28.785Z,97910.58
2019-03-23T09:58:24.264Z,97902.20
2019-03-23T10:01:21.762Z,97888.70
2019-03-23T10:04:17.805Z,97888.33
2019-03-23T10:07:14.890Z,97885.62
2019-03-23T10:10:21.390Z,97892.70
2019-03-23T10:13:07.653Z,97890.37
2019-03-23T10:16:05.890Z,97886.28
2019-03-23T10:19:03.009Z,97887.33
2019-03-23T10:22:00.227Z,97889.91
2019-03-23T10:24:58.747Z,97881.50
2019-03-23T10:27:56.853Z,97877.38
2019-03-23T10:30:54.004Z,97877.98
2019-03-23T10:33:50.194Z,97870.78
2019-03-23T10:36:48.674Z,97865.88
2019-03-23T10:39:44.309Z,97860.23
2019-03-23T10:42:43.173Z,97862.22
2019-03-23T10:45:44.146Z,97864.09
2019-03-23T10:48:34.744Z,97861.58
2019-03-23T10:51:31.678Z,97858.26
2019-03-23T10:54:28.163Z,97857.08
2019-03-23T10:57:26.577Z,97853.83
2019-03-23T11:00:39.614Z,97857.78
2019-03-23T11:03:38.927Z,97851.91
2019-03-23T11:06:37.362Z,97852.88
2019-03-23T11:09:34.489Z,97852.95
2019-03-23T11:12:30.893Z,97844.10
2019-03-23T11:15:28.062Z,97846.33
2019-03-23T11:18:26.380Z,97842.52
2019-03-23T11:21:22.453Z,97832.69
2019-03-23T11:24:19.966Z,97840.43
2019-03-23T11:27:17.309Z,97832.94
2019-03-23T11:30:14.509Z,97826.23
2019-03-23T11:33:10.817Z,97831.47
2019-03-23T11:36:08.126Z,97818.75
2019-03-23T11:39:05.419Z,97816.67
2019-03-23T11:42:01.693Z,97817.99
2019-03-23T11:44:59.031Z,97818.95
2019-03-23T11:47:56.016Z,97818.12
2019-03-23T11:50:53.467Z,97816.06
2019-03-23T11:53:49.418Z,97813.13
2019-03-23T11:56:47.608Z,97807.11
2019-03-23T11:59:43.196Z,97812.26
2019-03-23T12:02:40.371Z,97810.14
2019-03-23T12:05:37.530Z,97798.63
2019-03-23T12:08:34.850Z,97795.66
2019-03-23T12:11:32.198Z,97788.02
2019-03-23T12:14:28.641Z,97785.05
2019-03-23T12:17:27.216Z,97780.34
2019-03-23T12:20:23.487Z,97777.34
2019-03-23T12:23:21.210Z,97776.48
2019-03-23T12:26:19.263Z,97777.34
2019-03-23T12:29:14.639Z,97777.36
2019-03-23T12:32:11.784Z,97776.52
2019-03-23T12:35:08.205Z,97771.40
2019-03-23T12:38:10.515Z,97767.99
2019-03-23T12:41:18.547Z,97761.18
2019-03-23T12:44:03.783Z,97767.19
2019-03-23T12:47:01.145Z,97765.02
2019-03-23T12:49:57.371Z,97762.06
2019-03-23T12:52:54.868Z,97757.80
2019-03-23T12:55:51.126Z,97760.37
2019-03-23T12:58:55.459Z,97758.65
2019-03-23T13:01:51.612Z,97754.38
2019-03-23T13:04:48.456Z,97745.80
2019-03-23T13:07:46.367Z,97749.21
2019-03-23T13:10:42.529Z,97742.78
2019-03-23T13:13:40.655Z,97744.94
2019-03-23T13:16:35.953Z,97741.05
2019-03-23T13:19:34.344Z,97738.93
2019-03-23T13:22:32.027Z,97730.79
2019-03-23T13:25:29.259Z,97735.47
2019-03-23T13:28:28.668Z,97730.69
2019-03-23T13:31:24.898Z,97729.37
2019-03-23T13:34:22.122Z,97734.50
2019-03-23T13:37:17.037Z,97730.22
2019-03-23T13:40:15.217Z,97724.70
2019-03-23T13:43:11.624Z,97716.59
2019-03-23T13:46:08.768Z,97715.74
2019-03-23T13:49:12.734Z,97716.55
2019-03-23T13:52:08.473Z,97715.22
2019-03-23T13:55:05.704Z,97708.75
2019-03-23T13:58:02.825Z,97706.56
2019-03-23T14:00:59.895Z,97701.86
2019-03-23T14:03:56.174Z,97697.94
2019-03-23T14:06:53.328Z,97699.94
2019-03-23T14:09:50.547Z,97696.39
2019-03-23T14:12:47.720Z,97688.23
2019-03-23T14:15:45.199Z,97691.20
2019-03-23T14:18:42.852Z,97687.72
2019-03-23T14:21:40.352Z,97684.27
2019-03-23T14:24:36.479Z,97689.38
2019-03-23T14:27:33.876Z,97689.36
2019-03-23T14:30:31.233Z,97685.06
2019-03-23T14:33:29.557Z,97688.48
2019-03-23T14:36:25.842Z,97682.81
2019-03-23T14:39:24.767Z,97673.20
2019-03-23T14:42:21.481Z,97680.35
2019-03-23T14:45:18.866Z,97672.62
2019-03-23T14:48:15.993Z,97677.59
2019-03-23T14:51:12.226Z,97674.83
2019-03-23T14:54:09.443Z,97670.11
2019-03-23T14:57:06.356Z,97672.11
2019-03-23T15:00:04.810Z,97674.69
2019-03-23T15:03:00.927Z,97673.39
2019-03-23T15:05:58.174Z,97674.77
2019-03-23T15:08:54.499Z,97668.98
2019-03-23T15:11:51.372Z,97677.83
2019-03-23T15:14:47.604Z,97672.66
2019-03-23T15:17:48.930Z,97673.41
2019-03-23T15:20:46.019Z,97675.77
2019-03-23T15:23:44.074Z,97663.19
2019-03-23T15:26:45.660Z,97663.75
2019-03-23T15:29:43.193Z,97665.34
2019-03-23T15:32:41.850Z,97668.83
2019-03-23T15:35:37.813Z,97666.64
2019-03-23T15:38:35.036Z,97661.81
2019-03-23T15:41:32.410Z,97670.79
2019-03-23T15:44:29.824Z,97674.30
2019-03-23T15:47:28.130Z,97669.13
2019-03-23T15:50:26.444Z,97670.79
2019-03-23T15:53:24.913Z,97671.92
2019-03-23T15:56:21.285Z,97671.14
2019-03-23T15:59:19.523Z,97675.45
2019-03-23T16:02:15.695Z,97676.86
2019-03-23T16:05:14.139Z,97669.34
2019-03-23T16:08:11.540Z,97671.17
2019-03-23T16:11:08.503Z,97663.58
2019-03-23T16:14:05.752Z,97668.00
2019-03-23T16:17:03.145Z,97663.47
2019-03-23T16:20:04.551Z,97659.33
2019-03-23T16:23:00.813Z,97665.00
2019-03-23T16:25:58.897Z,97660.80
2019-03-23T16:28:56.382Z,97661.77
2019-03-23T16:31:54.632Z,97671.20
2019-03-23T16:34:52.794Z,97657.59
2019-03-23T16:37:47.781Z,97666.18
2019-03-23T16:40:46.056Z,97658.12
2019-03-23T16:43:42.214Z,97657.76
2019-03-23T16:46:38.522Z,97660.37
2019-03-23T16:49:35.062Z,97658.28
2019-03-23T16:52:32.325Z,97667.72
2019-03-23T16:55:29.768Z,97661.31
2019-03-23T16:58:27.148Z,97665.58
2019-03-23T17:01:24.208Z,97663.04
2019-03-23T17:04:21.438Z,97670.70
2019-03-23T17:07:17.631Z,97666.46
2019-03-23T17:10:13.970Z,97663.45
2019-03-23T17:13:11.169Z,97663.87
2019-03-23T17:16:08.371Z,97667.28
2019-03-23T17:19:04.427Z,97671.07
2019-03-23T17:22:02.581Z,97668.08
2019-03-23T17:24:59.067Z,97679.94
2019-03-23T17:27:56.349Z,97673.94
2019-03-23T17:30:53.846Z,97679.42
2019-03-23T17:33:50.968Z,97679.79
2019-03-23T17:36:48.796Z,97680.15
2019-03-23T17:39:45.802Z,97683.88
2019-03-23T17:42:44.339Z,97685.49
2019-03-23T17:45:40.525Z,97678.53
2019-03-23T17:48:37.628Z,97685.24
2019-03-23T17:51:35.979Z,97682.62
2019-03-23T17:54:33.136Z,97684.64
2019-03-23T17:57:30.086Z,97684.94
2019-03-23T18:00:27.283Z,97685.63
2019-03-23T18:03:23.871Z,97683.76
2019-03-23T18:06:21.031Z,97690.41
2019-03-23T18:09:22.027Z,97694.04
2019-03-23T18:12:20.714Z,97704.48
2019-03-23T18:15:16.797Z,97705.58
2019-03-23T18:18:13.946Z,97703.27
2019-03-23T18:21:09.671Z,97703.92
2019-03-23T18:24:07.140Z,97712.66
2019-03-23T18:27:03.253Z,97724.77
2019-03-23T18:30:00.405Z,97723.70
2019-03-23T18:32:58.448Z,97720.09
2019-03-23T18:35:55.747Z,97728.80
2019-03-23T18:38:52.815Z,97728.20
2019-03-23T18:41:50.939Z,97728.88
2019-03-23T18:44:48.030Z,97731.23
2019-03-23T18:47:43.920Z,97735.27
2019-03-23T18:50:42.718Z,97733.45
2019-03-23T18:53:38.542Z,97740.09
2019-03-23T18:56:37.665Z,97733.05
2019-03-23T18:59:33.830Z,97751.38
2019-03-23T19:02:30.550Z,97750.27
2019-03-23T19:05:28.645Z,97750.91
2019-03-23T19:08:26.341Z,97750.28
2019-03-23T19:11:23.988Z,97754.32
2019-03-23T19:14:20.138Z,97759.66
2019-03-23T19:17:17.398Z,97754.83
2019-03-23T19:20:13.970Z,97754.28
2019-03-23T19:23:11.741Z,97759.67
2019-03-23T19:26:08.845Z,97757.38
2019-03-23T19:29:05.844Z,97759.36
2019-03-23T19:32:02.158Z,97754.97
2019-03-23T19:35:00.185Z,97760.37
2019-03-23T19:37:56.950Z,97754.25
2019-03-23T19:40:55.069Z,97754.70
2019-03-23T19:43:52.149Z,97754.70
2019-03-23T19:46:49.445Z,97757.13
2019-03-23T19:49:45.759Z,97756.06
2019-03-23T19:52:43.125Z,97757.56
2019-03-23T19:55:40.643Z,97762.56
2019-03-23T19:58:37.794Z,97758.89
2019-03-23T20:01:34.227Z,97759.02
2019-03-23T20:04:31.798Z,97758.33
2019-03-23T20:07:33.070Z,97767.37
2019-03-23T20:10:25.078Z,97761.34
2019-03-23T20:13:21.786Z,97763.69
2019-03-23T20:16:19.243Z,97762.63
2019-03-23T20:19:15.075Z,97761.47
2019-03-23T20:22:12.312Z,97759.50
2019-03-23T20:25:09.571Z,97767.81
2019-03-23T20:28:07.013Z,97760.50
2019-03-23T20:31:03.086Z,97765.80
2019-03-23T20:34:01.149Z,97774.03
2019-03-23T20:36:57.299Z,97765.38
2019-03-23T20:39:54.744Z,97768.97
2019-03-23T20:42:53.259Z,97774.73
2019-03-23T20:45:52.574Z,97769.87
2019-03-23T20:48:49.747Z,97773.93
2019-03-23T20:51:46.188Z,97773.17
2019-03-23T20:54:43.592Z,97771.61
2019-03-23T20:57:43.167Z,97774.55
2019-03-23T21:00:39.569Z,97771.64
2019-03-23T21:03:36.027Z,97771.42
2019-03-23T21:06:31.851Z,97769.50
2019-03-23T21:09:30.074Z,97764.23
2019-03-23T21:12:27.390Z,97766.20
2019-03-23T21:15:25.711Z,97768.63
2019-03-23T21:18:24.155Z,97771.06
2019-03-23T21:21:20.905Z,97764.53
2019-03-23T21:24:19.077Z,97769.83
2019-03-23T21:27:19.078Z,97767.61
2019-03-23T21:30:15.447Z,97763.20
2019-03-23T21:33:12.953Z,97768.95
2019-03-23T21:36:10.038Z,97769.67
2019-03-23T21:39:06.930Z,97761.97
2019-03-23T21:42:03.909Z,97761.97
2019-03-23T21:45:02.207Z,97756.92
2019-03-23T21:47:58.474Z,97750.95
2019-03-23T21:50:55.859Z,97754.20
2019-03-23T21:53:51.436Z,97749.84
2019-03-23T21:56:48.684Z,97748.83
2019-03-23T21:59:46.828Z,97747.69
2019-03-23T22:02:42.914Z,97754.93
2019-03-23T22:05:39.761Z,97747.95
2019-03-23T22:08:35.618Z,97748.19
2019-03-23T22:11:32.956Z,97747.61
2019-03-23T22:14:29.228Z,97748.19
2019-03-23T22:17:26.619Z,97748.38
2019-03-23T22:20:23.928Z,97747.75
2019-03-23T22:23:19.996Z,97749.25
2019-03-23T22:26:18.357Z,97748.33
2019-03-23T22:29:13.831Z,97751.13
2019-03-23T22:32:11.070Z,97748.91
2019-03-23T22:35:07.178Z,97744.48
2019-03-23T22:38:05.554Z,97751.85
2019-03-23T22:41:01.789Z,97738.70
2019-03-23T22:43:58.936Z,97738.98
2019-03-23T22:46:56.377Z,97739.72
2019-03-23T22:49:53.472Z,97742.23
2019-03-23T22:52:50.960Z,97738.69
2019-03-23T22:55:48.164Z,97735.58
2019-03-23T22:58:45.974Z,97726.98
2019-03-23T23:01:41.907Z,97730.66
2019-03-23T23:04:38.964Z,97727.22
2019-03-23T23:07:36.187Z,97722.85
2019-03-23T23:10:31.805Z,97716.78
2019-03-23T23:13:28.938Z,97715.27
2019-03-23T23:16:25.134Z,97713.91
2019-03-23T23:19:21.378Z,97712.87
2019-03-23T23:22:17.806Z,97708.50
2019-03-23T23:25:15.110Z,97707.47
2019-03-23T23:28:12.266Z,97697.14
2019-03-23T23:31:09.716Z,97699.48
2019-03-23T23:34:07.137Z,97694.22
2019-03-23T23:37:04.441Z,97695.70
2019-03-23T23:40:01.664Z,97689.68
2019-03-23T23:42:57.729Z,97690.89
2019-03-23T23:45:55.953Z,97691.11
2019-03-23T23:48:52.186Z,97684.22
2019-03-23T23:51:50.498Z,97684.28
2019-03-23T23:54:45.945Z,97683.02
2019-03-23T23:57:44.941Z,97684.81
